sensor_id;sensor_type;location;lat;lon;timestamp;P1;durP1;ratioP1;P2;durP2;ratioP2
29940;SDS011;16801;53.562;10.038;2022-12-18T00:00:49;10.67;;;8.63;;
29940;SDS011;16801;53.562;10.038;2022-12-18T00:04:20;8.27;;;5.97;;
29940;SDS011;16801;53.562;10.038;2022-12-18T00:07:42;10.23;;;7.40;;
29940;SDS011;16801;53.562;10.038;2022-12-18T00:11:03;9.50;;;7.23;;
29940;SDS011;16801;53.562;10.038;2022-12-18T00:14:24;6.90;;;6.13;;
29940;SDS011;16801;53.562;10.038;2022-12-18T00:17:45;12.23;;;7.30;;
29940;SDS011;16801;53.562;10.038;2022-12-18T00:21:08;7.23;;;6.13;;
29940;SDS011;16801;53.562;10.038;2022-12-18T00:24:31;8.90;;;7.90;;
29940;SDS011;16801;53.562;10.038;2022-12-18T00:27:52;9.33;;;8.03;;
29940;SDS011;16801;53.562;10.038;2022-12-18T00:31:14;8.63;;;7.73;;
29940;SDS011;16801;53.562;10.038;2022-12-18T00:34:37;8.23;;;7.13;;
29940;SDS011;16801;53.562;10.038;2022-12-18T00:37:59;9.30;;;7.30;;
29940;SDS011;16801;53.562;10.038;2022-12-18T00:41:20;14.07;;;7.37;;
29940;SDS011;16801;53.562;10.038;2022-12-18T00:44:56;12.13;;;8.23;;
29940;SDS011;16801;53.562;10.038;2022-12-18T00:48:17;10.23;;;6.70;;
29940;SDS011;16801;53.562;10.038;2022-12-18T00:51:39;7.80;;;5.87;;
29940;SDS011;16801;53.562;10.038;2022-12-18T00:55:01;13.17;;;7.23;;
29940;SDS011;16801;53.562;10.038;2022-12-18T00:58:22;13.03;;;6.50;;
29940;SDS011;16801;53.562;10.038;2022-12-18T01:01:43;8.13;;;7.30;;
29940;SDS011;16801;53.562;10.038;2022-12-18T01:05:05;8.97;;;6.07;;
29940;SDS011;16801;53.562;10.038;2022-12-18T01:08:26;8.17;;;6.37;;
29940;SDS011;16801;53.562;10.038;2022-12-18T01:11:48;6.87;;;6.10;;
29940;SDS011;16801;53.562;10.038;2022-12-18T01:15:09;9.17;;;7.30;;
29940;SDS011;16801;53.562;10.038;2022-12-18T01:18:32;7.63;;;5.23;;
29940;SDS011;16801;53.562;10.038;2022-12-18T01:21:53;9.73;;;7.00;;
29940;SDS011;16801;53.562;10.038;2022-12-18T01:25:14;9.13;;;6.60;;
29940;SDS011;16801;53.562;10.038;2022-12-18T01:28:38;8.40;;;6.23;;
29940;SDS011;16801;53.562;10.038;2022-12-18T01:31:59;9.77;;;6.73;;
29940;SDS011;16801;53.562;10.038;2022-12-18T01:35:23;8.33;;;6.73;;
29940;SDS011;16801;53.562;10.038;2022-12-18T01:38:44;7.00;;;5.97;;
29940;SDS011;16801;53.562;10.038;2022-12-18T01:42:08;10.73;;;6.17;;
29940;SDS011;16801;53.562;10.038;2022-12-18T01:45:33;8.03;;;5.70;;
29940;SDS011;16801;53.562;10.038;2022-12-18T01:48:55;7.57;;;6.03;;
29940;SDS011;16801;53.562;10.038;2022-12-18T01:52:18;11.80;;;4.80;;
29940;SDS011;16801;53.562;10.038;2022-12-18T01:55:41;10.77;;;6.40;;
29940;SDS011;16801;53.562;10.038;2022-12-18T01:59:06;7.47;;;5.83;;
29940;SDS011;16801;53.562;10.038;2022-12-18T02:02:32;26.33;;;9.60;;
29940;SDS011;16801;53.562;10.038;2022-12-18T02:05:54;11.73;;;8.80;;
29940;SDS011;16801;53.562;10.038;2022-12-18T02:09:23;8.23;;;6.77;;
29940;SDS011;16801;53.562;10.038;2022-12-18T02:12:52;5.37;;;4.87;;
29940;SDS011;16801;53.562;10.038;2022-12-18T02:16:21;7.37;;;5.27;;
29940;SDS011;16801;53.562;10.038;2022-12-18T02:19:51;6.03;;;5.53;;
29940;SDS011;16801;53.562;10.038;2022-12-18T02:23:24;7.90;;;6.27;;
29940;SDS011;16801;53.562;10.038;2022-12-18T02:27:00;10.63;;;5.93;;
29940;SDS011;16801;53.562;10.038;2022-12-18T02:30:24;6.53;;;5.43;;
29940;SDS011;16801;53.562;10.038;2022-12-18T02:33:47;6.40;;;5.60;;
29940;SDS011;16801;53.562;10.038;2022-12-18T02:37:13;6.50;;;4.87;;
29940;SDS011;16801;53.562;10.038;2022-12-18T02:40:37;6.17;;;5.57;;
29940;SDS011;16801;53.562;10.038;2022-12-18T02:44:01;6.20;;;5.60;;
29940;SDS011;16801;53.562;10.038;2022-12-18T02:47:30;7.63;;;5.03;;
29940;SDS011;16801;53.562;10.038;2022-12-18T02:50:54;5.63;;;5.13;;
29940;SDS011;16801;53.562;10.038;2022-12-18T02:54:35;9.50;;;5.27;;
29940;SDS011;16801;53.562;10.038;2022-12-18T02:58:09;8.03;;;5.23;;
29940;SDS011;16801;53.562;10.038;2022-12-18T03:01:41;5.80;;;4.83;;
29940;SDS011;16801;53.562;10.038;2022-12-18T03:05:11;6.60;;;5.47;;
29940;SDS011;16801;53.562;10.038;2022-12-18T03:08:38;8.93;;;5.63;;
29940;SDS011;16801;53.562;10.038;2022-12-18T03:12:04;5.23;;;4.03;;
29940;SDS011;16801;53.562;10.038;2022-12-18T03:15:44;9.07;;;5.43;;
29940;SDS011;16801;53.562;10.038;2022-12-18T03:19:10;5.50;;;4.97;;
29940;SDS011;16801;53.562;10.038;2022-12-18T03:22:34;14.80;;;5.20;;
29940;SDS011;16801;53.562;10.038;2022-12-18T03:25:58;4.80;;;4.40;;
29940;SDS011;16801;53.562;10.038;2022-12-18T03:29:26;4.97;;;4.23;;
29940;SDS011;16801;53.562;10.038;2022-12-18T03:32:56;6.00;;;5.37;;
29940;SDS011;16801;53.562;10.038;2022-12-18T03:36:24;13.30;;;5.93;;
29940;SDS011;16801;53.562;10.038;2022-12-18T03:39:46;4.97;;;4.43;;
29940;SDS011;16801;53.562;10.038;2022-12-18T03:43:08;6.03;;;4.47;;
29940;SDS011;16801;53.562;10.038;2022-12-18T03:46:37;7.90;;;5.23;;
29940;SDS011;16801;53.562;10.038;2022-12-18T03:50:07;7.80;;;5.27;;
29940;SDS011;16801;53.562;10.038;2022-12-18T03:53:39;7.27;;;5.60;;
29940;SDS011;16801;53.562;10.038;2022-12-18T03:57:06;7.10;;;5.57;;
29940;SDS011;16801;53.562;10.038;2022-12-18T04:00:32;8.97;;;6.10;;
29940;SDS011;16801;53.562;10.038;2022-12-18T04:04:00;8.07;;;4.93;;
29940;SDS011;16801;53.562;10.038;2022-12-18T04:07:26;5.63;;;4.80;;
29940;SDS011;16801;53.562;10.038;2022-12-18T04:10:51;8.80;;;5.50;;
29940;SDS011;16801;53.562;10.038;2022-12-18T04:14:12;6.37;;;5.33;;
29940;SDS011;16801;53.562;10.038;2022-12-18T04:17:35;6.53;;;3.80;;
29940;SDS011;16801;53.562;10.038;2022-12-18T04:20:57;8.27;;;5.23;;
29940;SDS011;16801;53.562;10.038;2022-12-18T04:24:18;5.20;;;4.70;;
29940;SDS011;16801;53.562;10.038;2022-12-18T04:28:00;6.60;;;5.43;;
29940;SDS011;16801;53.562;10.038;2022-12-18T04:31:21;5.23;;;3.43;;
29940;SDS011;16801;53.562;10.038;2022-12-18T04:34:43;4.40;;;3.97;;
29940;SDS011;16801;53.562;10.038;2022-12-18T04:38:05;4.53;;;3.47;;
29940;SDS011;16801;53.562;10.038;2022-12-18T04:41:26;5.10;;;4.23;;
29940;SDS011;16801;53.562;10.038;2022-12-18T04:44:48;15.37;;;5.83;;
29940;SDS011;16801;53.562;10.038;2022-12-18T04:48:09;5.47;;;4.90;;
29940;SDS011;16801;53.562;10.038;2022-12-18T04:51:30;4.87;;;4.40;;
29940;SDS011;16801;53.562;10.038;2022-12-18T04:54:51;7.67;;;4.60;;
29940;SDS011;16801;53.562;10.038;2022-12-18T04:58:12;9.13;;;4.20;;
29940;SDS011;16801;53.562;10.038;2022-12-18T05:01:35;5.13;;;4.63;;
29940;SDS011;16801;53.562;10.038;2022-12-18T05:04:56;4.33;;;3.93;;
29940;SDS011;16801;53.562;10.038;2022-12-18T05:08:17;5.77;;;5.27;;
29940;SDS011;16801;53.562;10.038;2022-12-18T05:11:38;5.80;;;4.17;;
29940;SDS011;16801;53.562;10.038;2022-12-18T05:14:59;11.07;;;5.20;;
29940;SDS011;16801;53.562;10.038;2022-12-18T05:18:25;7.43;;;4.60;;
29940;SDS011;16801;53.562;10.038;2022-12-18T05:21:45;9.23;;;5.10;;
29940;SDS011;16801;53.562;10.038;2022-12-18T05:25:07;8.50;;;4.43;;
29940;SDS011;16801;53.562;10.038;2022-12-18T05:28:29;7.00;;;6.27;;
29940;SDS011;16801;53.562;10.038;2022-12-18T05:31:52;8.33;;;5.30;;
29940;SDS011;16801;53.562;10.038;2022-12-18T05:35:14;5.77;;;4.03;;
29940;SDS011;16801;53.562;10.038;2022-12-18T05:38:36;4.30;;;3.90;;
29940;SDS011;16801;53.562;10.038;2022-12-18T05:41:58;4.67;;;3.50;;
29940;SDS011;16801;53.562;10.038;2022-12-18T05:45:19;8.93;;;6.27;;
29940;SDS011;16801;53.562;10.038;2022-12-18T05:48:40;6.83;;;4.67;;
29940;SDS011;16801;53.562;10.038;2022-12-18T05:52:03;7.13;;;5.23;;
29940;SDS011;16801;53.562;10.038;2022-12-18T05:55:24;5.93;;;5.07;;
29940;SDS011;16801;53.562;10.038;2022-12-18T05:58:46;5.70;;;4.60;;
29940;SDS011;16801;53.562;10.038;2022-12-18T06:02:07;8.20;;;5.60;;
29940;SDS011;16801;53.562;10.038;2022-12-18T06:05:28;6.80;;;6.10;;
29940;SDS011;16801;53.562;10.038;2022-12-18T06:08:51;5.67;;;5.17;;
29940;SDS011;16801;53.562;10.038;2022-12-18T06:12:12;6.60;;;4.53;;
29940;SDS011;16801;53.562;10.038;2022-12-18T06:15:35;5.83;;;4.43;;
29940;SDS011;16801;53.562;10.038;2022-12-18T06:18:56;6.93;;;5.40;;
29940;SDS011;16801;53.562;10.038;2022-12-18T06:22:18;8.47;;;5.10;;
29940;SDS011;16801;53.562;10.038;2022-12-18T06:25:40;6.57;;;5.07;;
29940;SDS011;16801;53.562;10.038;2022-12-18T06:29:01;6.90;;;5.93;;
29940;SDS011;16801;53.562;10.038;2022-12-18T06:32:22;5.43;;;4.93;;
29940;SDS011;16801;53.562;10.038;2022-12-18T06:35:43;5.70;;;5.13;;
29940;SDS011;16801;53.562;10.038;2022-12-18T06:39:04;8.17;;;6.27;;
29940;SDS011;16801;53.562;10.038;2022-12-18T06:42:26;9.07;;;7.33;;
29940;SDS011;16801;53.562;10.038;2022-12-18T06:45:49;8.77;;;5.43;;
29940;SDS011;16801;53.562;10.038;2022-12-18T06:49:11;6.67;;;5.03;;
29940;SDS011;16801;53.562;10.038;2022-12-18T06:52:33;7.97;;;4.90;;
29940;SDS011;16801;53.562;10.038;2022-12-18T06:55:59;8.80;;;6.70;;
29940;SDS011;16801;53.562;10.038;2022-12-18T06:59:21;11.97;;;5.37;;
29940;SDS011;16801;53.562;10.038;2022-12-18T07:02:42;7.33;;;5.87;;
29940;SDS011;16801;53.562;10.038;2022-12-18T07:06:04;6.00;;;4.87;;
29940;SDS011;16801;53.562;10.038;2022-12-18T07:09:25;5.17;;;4.67;;
29940;SDS011;16801;53.562;10.038;2022-12-18T07:12:46;6.50;;;5.83;;
29940;SDS011;16801;53.562;10.038;2022-12-18T07:16:09;7.50;;;6.57;;
29940;SDS011;16801;53.562;10.038;2022-12-18T07:19:31;6.80;;;6.07;;
29940;SDS011;16801;53.562;10.038;2022-12-18T07:22:52;8.23;;;6.40;;
29940;SDS011;16801;53.562;10.038;2022-12-18T07:26:13;12.10;;;6.17;;
29940;SDS011;16801;53.562;10.038;2022-12-18T07:29:35;7.17;;;5.20;;
29940;SDS011;16801;53.562;10.038;2022-12-18T07:32:58;9.13;;;5.37;;
29940;SDS011;16801;53.562;10.038;2022-12-18T07:36:19;6.90;;;5.70;;
29940;SDS011;16801;53.562;10.038;2022-12-18T07:39:40;9.07;;;6.67;;
29940;SDS011;16801;53.562;10.038;2022-12-18T07:43:01;8.00;;;5.37;;
29940;SDS011;16801;53.562;10.038;2022-12-18T07:46:22;11.57;;;5.20;;
29940;SDS011;16801;53.562;10.038;2022-12-18T07:49:45;6.80;;;5.60;;
29940;SDS011;16801;53.562;10.038;2022-12-18T07:53:06;6.27;;;5.67;;
29940;SDS011;16801;53.562;10.038;2022-12-18T07:56:26;7.47;;;4.93;;
29940;SDS011;16801;53.562;10.038;2022-12-18T07:59:47;11.53;;;5.73;;
29940;SDS011;16801;53.562;10.038;2022-12-18T08:03:08;10.00;;;5.10;;
29940;SDS011;16801;53.562;10.038;2022-12-18T08:06:30;6.13;;;5.53;;
29940;SDS011;16801;53.562;10.038;2022-12-18T08:09:51;5.00;;;4.50;;
29940;SDS011;16801;53.562;10.038;2022-12-18T08:13:12;6.80;;;6.13;;
29940;SDS011;16801;53.562;10.038;2022-12-18T08:16:33;6.53;;;5.93;;
29940;SDS011;16801;53.562;10.038;2022-12-18T08:19:54;10.37;;;6.00;;
29940;SDS011;16801;53.562;10.038;2022-12-18T08:23:16;11.53;;;5.50;;
29940;SDS011;16801;53.562;10.038;2022-12-18T08:26:37;6.70;;;5.73;;
29940;SDS011;16801;53.562;10.038;2022-12-18T08:29:59;6.57;;;5.47;;
29940;SDS011;16801;53.562;10.038;2022-12-18T08:33:20;6.70;;;5.87;;
29940;SDS011;16801;53.562;10.038;2022-12-18T08:36:40;6.90;;;5.23;;
29940;SDS011;16801;53.562;10.038;2022-12-18T08:40:03;6.00;;;5.40;;
29940;SDS011;16801;53.562;10.038;2022-12-18T08:43:25;6.97;;;5.60;;
29940;SDS011;16801;53.562;10.038;2022-12-18T08:47:04;12.33;;;6.40;;
29940;SDS011;16801;53.562;10.038;2022-12-18T08:50:26;11.43;;;6.40;;
29940;SDS011;16801;53.562;10.038;2022-12-18T08:53:47;9.37;;;5.93;;
29940;SDS011;16801;53.562;10.038;2022-12-18T08:57:10;8.40;;;5.93;;
29940;SDS011;16801;53.562;10.038;2022-12-18T09:00:31;7.57;;;5.77;;
29940;SDS011;16801;53.562;10.038;2022-12-18T09:03:52;12.47;;;6.90;;
29940;SDS011;16801;53.562;10.038;2022-12-18T09:07:12;28.13;;;25.17;;
29940;SDS011;16801;53.562;10.038;2022-12-18T09:10:33;14.20;;;12.77;;
29940;SDS011;16801;53.562;10.038;2022-12-18T09:14:02;36.90;;;24.77;;
29940;SDS011;16801;53.562;10.038;2022-12-18T09:17:23;36.40;;;30.13;;
29940;SDS011;16801;53.562;10.038;2022-12-18T09:20:44;13.90;;;11.40;;
29940;SDS011;16801;53.562;10.038;2022-12-18T09:24:05;8.37;;;6.77;;
29940;SDS011;16801;53.562;10.038;2022-12-18T09:27:27;9.53;;;5.77;;
29940;SDS011;16801;53.562;10.038;2022-12-18T09:30:49;6.70;;;5.47;;
29940;SDS011;16801;53.562;10.038;2022-12-18T09:34:10;5.63;;;5.13;;
29940;SDS011;16801;53.562;10.038;2022-12-18T09:37:31;6.73;;;5.53;;
29940;SDS011;16801;53.562;10.038;2022-12-18T09:40:52;11.97;;;6.30;;
29940;SDS011;16801;53.562;10.038;2022-12-18T09:44:22;11.53;;;5.77;;
29940;SDS011;16801;53.562;10.038;2022-12-18T09:47:47;6.67;;;4.87;;
29940;SDS011;16801;53.562;10.038;2022-12-18T09:51:11;8.30;;;5.03;;
29940;SDS011;16801;53.562;10.038;2022-12-18T09:54:37;8.03;;;5.03;;
29940;SDS011;16801;53.562;10.038;2022-12-18T09:58:05;5.90;;;4.97;;
29940;SDS011;16801;53.562;10.038;2022-12-18T10:01:32;8.83;;;6.30;;
29940;SDS011;16801;53.562;10.038;2022-12-18T10:04:58;8.57;;;6.00;;
29940;SDS011;16801;53.562;10.038;2022-12-18T10:08:29;7.37;;;5.43;;
29940;SDS011;16801;53.562;10.038;2022-12-18T10:12:02;7.43;;;5.33;;
29940;SDS011;16801;53.562;10.038;2022-12-18T10:15:29;5.43;;;4.77;;
29940;SDS011;16801;53.562;10.038;2022-12-18T10:19:01;6.13;;;4.80;;
29940;SDS011;16801;53.562;10.038;2022-12-18T10:22:36;11.77;;;5.93;;
29940;SDS011;16801;53.562;10.038;2022-12-18T10:26:05;8.60;;;5.47;;
29940;SDS011;16801;53.562;10.038;2022-12-18T10:29:27;7.70;;;5.83;;
29940;SDS011;16801;53.562;10.038;2022-12-18T10:32:49;6.73;;;4.90;;
29940;SDS011;16801;53.562;10.038;2022-12-18T10:36:10;7.27;;;5.37;;
29940;SDS011;16801;53.562;10.038;2022-12-18T10:39:33;7.67;;;5.43;;
29940;SDS011;16801;53.562;10.038;2022-12-18T10:43:02;7.50;;;5.87;;
29940;SDS011;16801;53.562;10.038;2022-12-18T10:46:25;9.73;;;7.10;;
29940;SDS011;16801;53.562;10.038;2022-12-18T10:49:47;7.87;;;5.23;;
29940;SDS011;16801;53.562;10.038;2022-12-18T10:53:16;9.67;;;7.13;;
29940;SDS011;16801;53.562;10.038;2022-12-18T10:56:42;11.77;;;7.30;;
29940;SDS011;16801;53.562;10.038;2022-12-18T11:03:45;7.80;;;5.67;;
29940;SDS011;16801;53.562;10.038;2022-12-18T11:07:08;7.77;;;6.37;;
29940;SDS011;16801;53.562;10.038;2022-12-18T11:10:30;7.27;;;4.83;;
29940;SDS011;16801;53.562;10.038;2022-12-18T11:13:57;6.73;;;6.10;;
29940;SDS011;16801;53.562;10.038;2022-12-18T11:17:21;6.43;;;5.60;;
29940;SDS011;16801;53.562;10.038;2022-12-18T11:20:52;8.27;;;5.63;;
29940;SDS011;16801;53.562;10.038;2022-12-18T11:24:21;8.33;;;5.53;;
29940;SDS011;16801;53.562;10.038;2022-12-18T11:27:49;9.30;;;6.67;;
29940;SDS011;16801;53.562;10.038;2022-12-18T11:31:21;13.07;;;8.77;;
29940;SDS011;16801;53.562;10.038;2022-12-18T11:34:45;9.00;;;6.33;;
29940;SDS011;16801;53.562;10.038;2022-12-18T11:38:16;8.17;;;6.57;;
29940;SDS011;16801;53.562;10.038;2022-12-18T11:41:43;7.47;;;5.30;;
29940;SDS011;16801;53.562;10.038;2022-12-18T11:45:28;8.80;;;6.53;;
29940;SDS011;16801;53.562;10.038;2022-12-18T11:48:53;6.67;;;5.57;;
29940;SDS011;16801;53.562;10.038;2022-12-18T11:52:19;8.33;;;6.73;;
29940;SDS011;16801;53.562;10.038;2022-12-18T11:55:48;7.37;;;6.00;;
29940;SDS011;16801;53.562;10.038;2022-12-18T11:59:16;10.50;;;6.63;;
29940;SDS011;16801;53.562;10.038;2022-12-18T12:02:55;8.47;;;5.73;;
29940;SDS011;16801;53.562;10.038;2022-12-18T12:06:36;11.13;;;7.63;;
29940;SDS011;16801;53.562;10.038;2022-12-18T12:10:10;9.27;;;6.47;;
29940;SDS011;16801;53.562;10.038;2022-12-18T12:13:48;10.77;;;7.70;;
29940;SDS011;16801;53.562;10.038;2022-12-18T12:17:19;7.87;;;6.97;;
29940;SDS011;16801;53.562;10.038;2022-12-18T12:20:49;7.00;;;6.30;;
29940;SDS011;16801;53.562;10.038;2022-12-18T12:24:22;11.93;;;8.27;;
29940;SDS011;16801;53.562;10.038;2022-12-18T12:27:58;9.10;;;6.27;;
29940;SDS011;16801;53.562;10.038;2022-12-18T12:31:39;11.73;;;7.47;;
29940;SDS011;16801;53.562;10.038;2022-12-18T12:35:16;21.60;;;8.53;;
29940;SDS011;16801;53.562;10.038;2022-12-18T12:38:54;14.27;;;7.00;;
29940;SDS011;16801;53.562;10.038;2022-12-18T12:42:23;11.90;;;7.50;;
29940;SDS011;16801;53.562;10.038;2022-12-18T12:46:22;11.67;;;7.60;;
29940;SDS011;16801;53.562;10.038;2022-12-18T12:49:45;12.23;;;8.30;;
29940;SDS011;16801;53.562;10.038;2022-12-18T12:53:09;10.63;;;6.10;;
29940;SDS011;16801;53.562;10.038;2022-12-18T12:56:42;10.97;;;7.10;;
29940;SDS011;16801;53.562;10.038;2022-12-18T13:00:11;8.80;;;7.77;;
29940;SDS011;16801;53.562;10.038;2022-12-18T13:03:39;11.30;;;7.03;;
29940;SDS011;16801;53.562;10.038;2022-12-18T13:07:14;10.93;;;8.00;;
29940;SDS011;16801;53.562;10.038;2022-12-18T13:10:39;12.23;;;7.73;;
29940;SDS011;16801;53.562;10.038;2022-12-18T13:14:02;11.20;;;7.93;;
29940;SDS011;16801;53.562;10.038;2022-12-18T13:17:26;11.57;;;8.13;;
29940;SDS011;16801;53.562;10.038;2022-12-18T13:20:50;9.33;;;6.57;;
29940;SDS011;16801;53.562;10.038;2022-12-18T13:24:24;15.10;;;9.47;;
29940;SDS011;16801;53.562;10.038;2022-12-18T13:27:52;9.37;;;6.80;;
29940;SDS011;16801;53.562;10.038;2022-12-18T13:35:40;8.50;;;5.87;;
29940;SDS011;16801;53.562;10.038;2022-12-18T13:39:23;10.00;;;8.03;;
29940;SDS011;16801;53.562;10.038;2022-12-18T13:42:51;8.80;;;7.63;;
29940;SDS011;16801;53.562;10.038;2022-12-18T13:46:30;12.50;;;8.90;;
29940;SDS011;16801;53.562;10.038;2022-12-18T13:50:09;15.23;;;7.20;;
29940;SDS011;16801;53.562;10.038;2022-12-18T13:53:34;10.40;;;7.00;;
29940;SDS011;16801;53.562;10.038;2022-12-18T13:56:59;10.63;;;7.93;;
29940;SDS011;16801;53.562;10.038;2022-12-18T14:00:25;12.20;;;7.67;;
29940;SDS011;16801;53.562;10.038;2022-12-18T14:03:48;16.17;;;7.57;;
29940;SDS011;16801;53.562;10.038;2022-12-18T14:07:10;7.50;;;6.73;;
29940;SDS011;16801;53.562;10.038;2022-12-18T14:10:35;12.27;;;7.90;;
29940;SDS011;16801;53.562;10.038;2022-12-18T14:14:01;11.17;;;7.30;;
29940;SDS011;16801;53.562;10.038;2022-12-18T14:17:26;11.20;;;8.43;;
29940;SDS011;16801;53.562;10.038;2022-12-18T14:20:48;14.23;;;9.00;;
29940;SDS011;16801;53.562;10.038;2022-12-18T14:24:12;12.30;;;7.97;;
29940;SDS011;16801;53.562;10.038;2022-12-18T14:27:37;14.83;;;8.93;;
29940;SDS011;16801;53.562;10.038;2022-12-18T14:31:02;13.57;;;8.17;;
29940;SDS011;16801;53.562;10.038;2022-12-18T14:34:25;10.20;;;7.00;;
29940;SDS011;16801;53.562;10.038;2022-12-18T14:37:47;12.53;;;6.87;;
29940;SDS011;16801;53.562;10.038;2022-12-18T14:41:10;13.47;;;8.73;;
29940;SDS011;16801;53.562;10.038;2022-12-18T14:44:33;12.93;;;8.53;;
29940;SDS011;16801;53.562;10.038;2022-12-18T14:47:54;13.23;;;8.27;;
29940;SDS011;16801;53.562;10.038;2022-12-18T14:51:16;17.80;;;8.00;;
29940;SDS011;16801;53.562;10.038;2022-12-18T14:54:39;12.93;;;7.17;;
29940;SDS011;16801;53.562;10.038;2022-12-18T14:58:00;12.17;;;8.77;;
29940;SDS011;16801;53.562;10.038;2022-12-18T15:01:24;12.30;;;9.17;;
29940;SDS011;16801;53.562;10.038;2022-12-18T15:04:46;15.87;;;8.77;;
29940;SDS011;16801;53.562;10.038;2022-12-18T15:11:56;14.07;;;8.00;;
29940;SDS011;16801;53.562;10.038;2022-12-18T15:19:08;13.80;;;8.30;;
29940;SDS011;16801;53.562;10.038;2022-12-18T15:22:30;12.23;;;7.97;;
29940;SDS011;16801;53.562;10.038;2022-12-18T15:25:55;15.77;;;7.87;;
29940;SDS011;16801;53.562;10.038;2022-12-18T15:29:18;16.07;;;9.03;;
29940;SDS011;16801;53.562;10.038;2022-12-18T15:32:45;15.03;;;7.93;;
29940;SDS011;16801;53.562;10.038;2022-12-18T15:36:09;16.63;;;6.87;;
29940;SDS011;16801;53.562;10.038;2022-12-18T15:39:32;12.67;;;9.07;;
29940;SDS011;16801;53.562;10.038;2022-12-18T15:42:55;16.93;;;8.87;;
29940;SDS011;16801;53.562;10.038;2022-12-18T15:46:34;18.90;;;7.70;;
29940;SDS011;16801;53.562;10.038;2022-12-18T15:49:54;14.67;;;8.80;;
29940;SDS011;16801;53.562;10.038;2022-12-18T15:53:17;12.30;;;8.30;;
29940;SDS011;16801;53.562;10.038;2022-12-18T15:56:38;12.23;;;8.10;;
29940;SDS011;16801;53.562;10.038;2022-12-18T16:00:16;13.23;;;8.20;;
29940;SDS011;16801;53.562;10.038;2022-12-18T16:03:37;15.97;;;8.93;;
29940;SDS011;16801;53.562;10.038;2022-12-18T16:06:58;26.80;;;8.50;;
29940;SDS011;16801;53.562;10.038;2022-12-18T16:10:21;13.50;;;7.70;;
29940;SDS011;16801;53.562;10.038;2022-12-18T16:13:43;12.80;;;7.03;;
29940;SDS011;16801;53.562;10.038;2022-12-18T16:17:05;10.53;;;7.53;;
29940;SDS011;16801;53.562;10.038;2022-12-18T16:20:30;15.23;;;8.27;;
29940;SDS011;16801;53.562;10.038;2022-12-18T16:23:51;15.40;;;8.00;;
29940;SDS011;16801;53.562;10.038;2022-12-18T16:27:13;15.67;;;8.53;;
29940;SDS011;16801;53.562;10.038;2022-12-18T16:30:34;19.33;;;11.50;;
29940;SDS011;16801;53.562;10.038;2022-12-18T16:34:11;13.63;;;8.73;;
29940;SDS011;16801;53.562;10.038;2022-12-18T16:37:34;14.00;;;9.00;;
29940;SDS011;16801;53.562;10.038;2022-12-18T16:40:55;15.20;;;8.43;;
29940;SDS011;16801;53.562;10.038;2022-12-18T16:44:35;11.93;;;8.20;;
29940;SDS011;16801;53.562;10.038;2022-12-18T16:47:56;11.93;;;6.73;;
29940;SDS011;16801;53.562;10.038;2022-12-18T16:51:17;12.07;;;7.90;;
29940;SDS011;16801;53.562;10.038;2022-12-18T16:54:38;7.47;;;6.00;;
29940;SDS011;16801;53.562;10.038;2022-12-18T16:57:59;18.07;;;7.63;;
29940;SDS011;16801;53.562;10.038;2022-12-18T17:01:21;16.27;;;8.10;;
29940;SDS011;16801;53.562;10.038;2022-12-18T17:04:43;19.73;;;13.00;;
29940;SDS011;16801;53.562;10.038;2022-12-18T17:08:04;13.00;;;10.50;;
29940;SDS011;16801;53.562;10.038;2022-12-18T17:11:25;12.17;;;7.13;;
29940;SDS011;16801;53.562;10.038;2022-12-18T17:14:46;10.97;;;7.93;;
29940;SDS011;16801;53.562;10.038;2022-12-18T17:18:09;15.97;;;9.70;;
29940;SDS011;16801;53.562;10.038;2022-12-18T17:21:30;13.90;;;7.63;;
29940;SDS011;16801;53.562;10.038;2022-12-18T17:24:51;13.47;;;8.40;;
29940;SDS011;16801;53.562;10.038;2022-12-18T17:28:12;12.27;;;9.40;;
29940;SDS011;16801;53.562;10.038;2022-12-18T17:31:33;8.67;;;5.73;;
29940;SDS011;16801;53.562;10.038;2022-12-18T17:34:55;12.10;;;7.37;;
29940;SDS011;16801;53.562;10.038;2022-12-18T17:38:17;12.70;;;8.00;;
29940;SDS011;16801;53.562;10.038;2022-12-18T17:41:38;13.50;;;6.50;;
29940;SDS011;16801;53.562;10.038;2022-12-18T17:44:58;12.50;;;8.77;;
29940;SDS011;16801;53.562;10.038;2022-12-18T17:48:19;12.67;;;8.17;;
29940;SDS011;16801;53.562;10.038;2022-12-18T17:51:41;9.73;;;6.67;;
29940;SDS011;16801;53.562;10.038;2022-12-18T17:55:02;8.53;;;5.50;;
29940;SDS011;16801;53.562;10.038;2022-12-18T17:58:24;9.73;;;5.60;;
29940;SDS011;16801;53.562;10.038;2022-12-18T18:01:44;9.43;;;6.30;;
29940;SDS011;16801;53.562;10.038;2022-12-18T18:05:05;11.30;;;5.40;;
29940;SDS011;16801;53.562;10.038;2022-12-18T18:08:28;12.20;;;7.27;;
29940;SDS011;16801;53.562;10.038;2022-12-18T18:11:50;12.73;;;8.67;;
29940;SDS011;16801;53.562;10.038;2022-12-18T18:15:28;9.00;;;6.57;;
29940;SDS011;16801;53.562;10.038;2022-12-18T18:18:49;11.57;;;6.93;;
29940;SDS011;16801;53.562;10.038;2022-12-18T18:22:10;10.97;;;6.60;;
29940;SDS011;16801;53.562;10.038;2022-12-18T18:25:35;9.30;;;7.40;;
29940;SDS011;16801;53.562;10.038;2022-12-18T18:28:57;8.30;;;6.20;;
29940;SDS011;16801;53.562;10.038;2022-12-18T18:32:18;10.13;;;6.60;;
29940;SDS011;16801;53.562;10.038;2022-12-18T18:35:40;14.60;;;8.67;;
29940;SDS011;16801;53.562;10.038;2022-12-18T18:39:02;13.57;;;7.93;;
29940;SDS011;16801;53.562;10.038;2022-12-18T18:42:24;12.47;;;9.27;;
29940;SDS011;16801;53.562;10.038;2022-12-18T18:45:45;9.47;;;6.40;;
29940;SDS011;16801;53.562;10.038;2022-12-18T18:49:06;11.33;;;8.60;;
29940;SDS011;16801;53.562;10.038;2022-12-18T18:52:27;11.23;;;6.97;;
29940;SDS011;16801;53.562;10.038;2022-12-18T18:55:48;12.37;;;6.47;;
29940;SDS011;16801;53.562;10.038;2022-12-18T18:59:10;14.57;;;6.83;;
29940;SDS011;16801;53.562;10.038;2022-12-18T19:02:31;9.67;;;5.57;;
29940;SDS011;16801;53.562;10.038;2022-12-18T19:05:53;7.00;;;5.97;;
29940;SDS011;16801;53.562;10.038;2022-12-18T19:09:15;8.27;;;6.57;;
29940;SDS011;16801;53.562;10.038;2022-12-18T19:12:36;9.73;;;6.30;;
29940;SDS011;16801;53.562;10.038;2022-12-18T19:16:16;6.17;;;5.57;;
29940;SDS011;16801;53.562;10.038;2022-12-18T19:19:37;13.43;;;6.33;;
29940;SDS011;16801;53.562;10.038;2022-12-18T19:22:58;12.93;;;7.30;;
29940;SDS011;16801;53.562;10.038;2022-12-18T19:26:19;9.93;;;6.80;;
29940;SDS011;16801;53.562;10.038;2022-12-18T19:29:41;7.47;;;4.97;;
29940;SDS011;16801;53.562;10.038;2022-12-18T19:33:03;7.40;;;5.30;;
29940;SDS011;16801;53.562;10.038;2022-12-18T19:36:25;8.13;;;5.23;;
29940;SDS011;16801;53.562;10.038;2022-12-18T19:39:47;10.03;;;7.07;;
29940;SDS011;16801;53.562;10.038;2022-12-18T19:43:08;8.27;;;5.03;;
29940;SDS011;16801;53.562;10.038;2022-12-18T19:46:30;8.17;;;5.80;;
29940;SDS011;16801;53.562;10.038;2022-12-18T19:49:52;6.03;;;5.40;;
29940;SDS011;16801;53.562;10.038;2022-12-18T19:53:13;9.23;;;5.40;;
29940;SDS011;16801;53.562;10.038;2022-12-18T19:56:34;16.13;;;8.93;;
29940;SDS011;16801;53.562;10.038;2022-12-18T19:59:55;12.67;;;6.60;;
29940;SDS011;16801;53.562;10.038;2022-12-18T20:03:16;10.60;;;7.60;;
29940;SDS011;16801;53.562;10.038;2022-12-18T20:06:46;8.30;;;6.53;;
29940;SDS011;16801;53.562;10.038;2022-12-18T20:10:09;5.10;;;4.70;;
29940;SDS011;16801;53.562;10.038;2022-12-18T20:13:33;10.00;;;6.43;;
29940;SDS011;16801;53.562;10.038;2022-12-18T20:16:54;16.67;;;7.97;;
29940;SDS011;16801;53.562;10.038;2022-12-18T20:20:16;13.83;;;8.10;;